Time;durP1;ratioP1;P1;durP2;ratioP2;P2;SDS_P1;SDS_P2;PMS_P1;PMS_P2;Temp;Humidity;BMP_temperature;BMP_pressure;BME280_temperature;BME280_humidity;BME280_pressure;Samples;Min_cycle;Max_cycle;Signal;HPM_P1;HPM_P2
2023/09/02 00:00:34;;;;;;;3.40;2.50;;;17.20;99.90;;;;;;5049588;28;20223;-67
2023/09/02 00:02:59;;;;;;;2.30;2.10;;;17.20;99.90;;;;;;5048870;28;20189;-67
2023/09/02 00:05:25;;;;;;;3.60;2.40;;;17.00;99.90;;;;;;5044146;28;20542;-67
2023/09/02 00:07:51;;;;;;;2.33;2.13;;;17.10;99.90;;;;;;5049196;28;20621;-68
2023/09/02 00:10:16;;;;;;;5.50;2.47;;;17.10;99.90;;;;;;5049569;28;20189;-68
2023/09/02 00:12:42;;;;;;;2.63;2.20;;;17.10;99.90;;;;;;5049740;28;20712;-68
2023/09/02 00:15:09;;;;;;;2.40;2.20;;;17.10;99.90;;;;;;5048526;28;20194;-68
2023/09/02 00:17:35;;;;;;;2.63;2.40;;;16.90;99.90;;;;;;5049914;28;20505;-68
2023/09/02 00:20:04;;;;;;;2.75;1.90;;;16.90;99.90;;;;;;5047828;28;20190;-67
2023/09/02 00:22:32;;;;;;;2.22;2.00;;;17.10;99.90;;;;;;5046616;28;20192;-67
2023/09/02 00:24:58;;;;;;;4.50;2.20;;;16.90;99.90;;;;;;5050314;28;20212;-69
2023/09/02 00:27:24;;;;;;;4.75;2.38;;;17.00;99.90;;;;;;5039827;28;20237;-68
2023/09/02 00:29:49;;;;;;;4.70;2.50;;;16.80;99.90;;;;;;5050728;28;20902;-67
2023/09/02 00:32:15;;;;;;;2.23;2.03;;;16.80;99.90;;;;;;5050008;28;20202;-67
2023/09/02 00:34:40;;;;;;;2.50;2.20;;;16.90;99.90;;;;;;5046978;28;20643;-68
2023/09/02 00:37:06;;;;;;;3.40;2.60;;;17.00;99.90;;;;;;5048928;28;20578;-66
2023/09/02 00:39:32;;;;;;;2.63;2.17;;;16.80;99.90;;;;;;5049056;28;20270;-67
2023/09/02 00:41:59;;;;;;;2.50;2.30;;;16.70;99.90;;;;;;5049712;28;20173;-68
2023/09/02 00:44:25;;;;;;;3.40;2.50;;;16.90;99.90;;;;;;5049766;28;20654;-67
2023/09/02 00:46:51;;;;;;;2.72;2.38;;;16.80;99.90;;;;;;5047714;28;20485;-67
2023/09/02 00:49:17;;;;;;;2.60;2.13;;;16.70;99.90;;;;;;5044781;28;20236;-68
2023/09/02 00:51:42;;;;;;;3.00;2.40;;;16.80;99.90;;;;;;5048662;28;20436;-68
2023/09/02 00:54:08;;;;;;;3.53;2.40;;;16.60;99.90;;;;;;5048344;28;20197;-68
2023/09/02 00:56:35;;;;;;;2.83;2.27;;;16.70;99.90;;;;;;5042611;28;20205;-68
2023/09/02 00:59:04;;;;;;;2.05;1.85;;;16.80;99.90;;;;;;5047366;28;20277;-67
2023/09/02 01:01:32;;;;;;;2.95;2.30;;;16.50;99.90;;;;;;5048607;28;20279;-68
2023/09/02 01:03:59;;;;;;;2.30;2.10;;;16.60;99.90;;;;;;5045769;28;20732;-69
2023/09/02 01:06:25;;;;;;;3.60;2.15;;;16.50;99.90;;;;;;5046442;28;20186;-68
2023/09/02 01:08:51;;;;;;;2.63;2.27;;;16.40;99.90;;;;;;5046863;28;20232;-68
2023/09/02 01:11:17;;;;;;;2.88;2.55;;;16.30;99.90;;;;;;5044484;28;20659;-69
2023/09/02 01:13:42;;;;;;;2.50;2.10;;;16.60;99.90;;;;;;5046469;28;20239;-68
2023/09/02 01:16:08;;;;;;;3.57;2.07;;;16.40;99.90;;;;;;5048719;28;20185;-68
2023/09/02 01:18:35;;;;;;;3.00;1.70;;;16.40;99.90;;;;;;5045613;28;20220;-67
2023/09/02 01:21:19;;;;;;;2.13;2.03;;;16.50;99.90;;;;;;5047474;28;20242;-67
2023/09/02 01:24:03;;;;;;;3.72;2.30;;;16.50;99.90;;;;;;5045961;28;20182;-68
2023/09/02 01:26:53;;;;;;;2.92;2.25;;;16.60;99.90;;;;;;5043801;28;20483;-67
2023/09/02 01:29:24;;;;;;;2.50;2.30;;;16.50;99.90;;;;;;5047182;28;20181;-68
2023/09/02 01:31:52;;;;;;;4.53;2.38;;;16.50;99.90;;;;;;5047837;28;20224;-68
2023/09/02 01:34:18;;;;;;;2.22;2.03;;;16.50;99.90;;;;;;5044323;28;20191;-68
2023/09/02 01:36:46;;;;;;;2.20;2.00;;;16.50;99.90;;;;;;5045565;28;20213;-67
2023/09/02 01:39:14;;;;;;;4.35;2.35;;;16.60;99.90;;;;;;5048020;28;20220;-67
2023/09/02 01:41:41;;;;;;;1.83;1.73;;;16.50;99.90;;;;;;5045720;28;20182;-68
2023/09/02 01:44:08;;;;;;;2.83;2.30;;;16.60;99.90;;;;;;5045767;28;20668;-67
2023/09/02 01:46:35;;;;;;;3.50;2.40;;;16.50;99.90;;;;;;5048378;28;20201;-68
2023/09/02 01:49:01;;;;;;;4.60;2.63;;;16.40;99.90;;;;;;5047390;28;20624;-67
2023/09/02 01:51:28;;;;;;;2.00;1.80;;;16.70;99.90;;;;;;5047718;28;20208;-68
2023/09/02 01:53:54;;;;;;;2.97;1.90;;;16.50;99.90;;;;;;5046736;28;20197;-68
2023/09/02 01:56:20;;;;;;;2.47;2.27;;;16.60;99.90;;;;;;5044887;28;20204;-69
2023/09/02 01:58:49;;;;;;;1.98;1.85;;;16.90;99.90;;;;;;5045810;28;20228;-69
2023/09/02 02:01:15;;;;;;;3.13;2.30;;;16.60;99.90;;;;;;5044114;28;20189;-68
2023/09/02 02:03:56;;;;;;;2.70;2.15;;;16.40;99.90;;;;;;5044673;28;20289;-68
2023/09/02 02:06:23;;;;;;;3.13;2.60;;;16.40;99.90;;;;;;5046687;28;20558;-68
2023/09/02 02:09:01;;;;;;;2.53;2.25;;;16.50;99.90;;;;;;5047541;28;20215;-68
2023/09/02 02:11:29;;;;;;;3.90;2.50;;;16.40;99.90;;;;;;5047819;28;20184;-68
2023/09/02 02:14:03;;;;;;;2.53;2.22;;;16.30;99.90;;;;;;5051979;28;20303;-67
2023/09/02 02:16:29;;;;;;;2.60;2.00;;;16.30;99.90;;;;;;5050033;28;20185;-68
2023/09/02 02:18:56;;;;;;;2.88;2.45;;;16.40;99.90;;;;;;5048144;28;20231;-68
2023/09/02 02:21:22;;;;;;;2.25;2.05;;;16.50;99.90;;;;;;5047449;28;20518;-68
2023/09/02 02:23:48;;;;;;;3.30;2.20;;;16.30;99.90;;;;;;5049997;28;20182;-69
2023/09/02 02:26:15;;;;;;;3.00;2.30;;;16.40;99.90;;;;;;5041886;28;20756;-68
2023/09/02 02:28:41;;;;;;;2.35;2.00;;;15.90;99.90;;;;;;5048733;28;20209;-68
2023/09/02 02:31:07;;;;;;;2.78;2.13;;;16.40;99.90;;;;;;5050330;28;20182;-68
2023/09/02 02:33:33;;;;;;;3.07;2.13;;;16.40;99.90;;;;;;5051807;28;20196;-69
2023/09/02 02:35:58;;;;;;;3.20;2.63;;;16.40;99.90;;;;;;5047850;28;20614;-67
2023/09/02 02:38:24;;;;;;;2.77;2.57;;;16.40;99.90;;;;;;5050185;28;20992;-68
2023/09/02 02:40:49;;;;;;;2.83;2.50;;;16.30;99.90;;;;;;5048210;28;20272;-68
2023/09/02 02:43:15;;;;;;;2.33;1.93;;;16.50;99.90;;;;;;5051265;28;20647;-69
2023/09/02 02:45:41;;;;;;;4.90;2.33;;;16.40;99.90;;;;;;5048869;28;20196;-68
2023/09/02 02:48:12;;;;;;;3.70;2.20;;;16.50;99.90;;;;;;5050219;28;20990;-68
2023/09/02 02:50:38;;;;;;;2.58;2.17;;;16.40;99.90;;;;;;5048856;28;20200;-68
2023/09/02 02:53:05;;;;;;;2.87;2.57;;;16.40;99.90;;;;;;5047955;28;20187;-67
2023/09/02 02:55:31;;;;;;;2.88;2.60;;;16.40;99.90;;;;;;5045007;28;20609;-68
2023/09/02 02:57:57;;;;;;;2.47;2.27;;;16.30;99.90;;;;;;5049141;28;20212;-67
2023/09/02 03:00:22;;;;;;;3.90;2.50;;;16.20;99.90;;;;;;5050323;28;21339;-69
2023/09/02 03:02:51;;;;;;;3.50;2.20;;;16.20;99.90;;;;;;5046301;28;20449;-68
2023/09/02 03:05:19;;;;;;;2.50;2.28;;;16.10;99.90;;;;;;5048236;28;20209;-69
2023/09/02 03:07:45;;;;;;;2.28;2.08;;;16.20;99.90;;;;;;5049324;28;20288;-68
2023/09/02 03:10:11;;;;;;;2.60;2.40;;;16.20;99.90;;;;;;5047117;28;20273;-70
2023/09/02 03:12:36;;;;;;;2.70;2.50;;;16.30;99.90;;;;;;5050024;28;20549;-67
2023/09/02 03:15:03;;;;;;;4.37;3.00;;;16.50;99.90;;;;;;5049630;28;20196;-67
2023/09/02 03:17:29;;;;;;;4.47;2.60;;;16.00;99.90;;;;;;5047559;28;20284;-67
2023/09/02 03:19:54;;;;;;;4.40;2.43;;;16.10;99.90;;;;;;5047203;28;20621;-66
2023/09/02 03:22:20;;;;;;;2.57;2.37;;;16.20;99.90;;;;;;5045738;28;20186;-68
2023/09/02 03:24:45;;;;;;;7.43;2.20;;;16.00;99.90;;;;;;5048200;28;20177;-67
2023/09/02 03:27:11;;;;;;;2.70;2.43;;;16.00;99.90;;;;;;5047727;28;20208;-67
2023/09/02 03:29:37;;;;;;;3.53;2.87;;;16.10;99.90;;;;;;5050238;28;20666;-67
2023/09/02 03:32:02;;;;;;;2.70;2.50;;;16.30;99.90;;;;;;5049629;28;20265;-68
2023/09/02 03:34:28;;;;;;;3.70;2.30;;;16.20;99.90;;;;;;5047670;28;20189;-67
2023/09/02 03:36:54;;;;;;;4.13;2.50;;;16.10;99.90;;;;;;5040745;28;20502;-68
2023/09/02 03:39:19;;;;;;;3.83;2.30;;;15.90;99.90;;;;;;5049266;28;20209;-67
2023/09/02 03:41:45;;;;;;;2.87;2.33;;;16.00;99.90;;;;;;5047815;28;20193;-67
2023/09/02 03:44:11;;;;;;;6.38;2.45;;;16.00;99.90;;;;;;5050032;28;20701;-67
2023/09/02 03:46:36;;;;;;;2.50;2.20;;;15.90;99.90;;;;;;5049845;28;20292;-67
2023/09/02 03:49:02;;;;;;;2.97;2.53;;;16.00;99.90;;;;;;5048538;28;20638;-69
2023/09/02 03:51:28;;;;;;;1.80;1.70;;;16.10;99.90;;;;;;5049465;28;20216;-68
2023/09/02 03:53:54;;;;;;;3.10;2.07;;;16.10;99.90;;;;;;5047020;28;20924;-68
2023/09/02 03:56:19;;;;;;;2.07;1.90;;;15.90;99.90;;;;;;5047689;28;20189;-67
2023/09/02 03:58:45;;;;;;;3.30;2.10;;;15.80;99.90;;;;;;5048406;28;20212;-68
2023/09/02 04:01:12;;;;;;;3.00;2.43;;;15.80;99.90;;;;;;5047576;28;20447;-68
2023/09/02 04:03:38;;;;;;;3.10;2.50;;;15.70;99.90;;;;;;5048538;28;20196;-67
2023/09/02 04:06:04;;;;;;;2.50;2.30;;;15.70;99.90;;;;;;5048644;28;20178;-68
2023/09/02 04:08:36;;;;;;;2.35;2.10;;;15.70;99.90;;;;;;5052480;28;20259;-67
2023/09/02 04:11:03;;;;;;;3.22;2.47;;;15.70;99.90;;;;;;5046810;28;20206;-67
2023/09/02 04:13:29;;;;;;;1.90;1.80;;;15.80;99.90;;;;;;5050946;28;20799;-68
2023/09/02 04:16:02;;;;;;;4.55;2.60;;;15.90;99.90;;;;;;5049492;28;20185;-68
2023/09/02 04:18:30;;;;;;;2.97;1.95;;;15.70;99.90;;;;;;5045507;28;20223;-68
2023/09/02 04:20:56;;;;;;;2.47;2.00;;;15.70;99.90;;;;;;5048945;28;20277;-68
2023/09/02 04:23:22;;;;;;;4.23;2.60;;;15.70;99.90;;;;;;5049129;28;20652;-68
2023/09/02 04:25:52;;;;;;;4.43;2.38;;;15.40;99.90;;;;;;5045047;28;20184;-68
2023/09/02 04:28:18;;;;;;;5.15;2.30;;;15.70;99.90;;;;;;5047390;28;20205;-68
2023/09/02 04:30:45;;;;;;;3.38;2.10;;;15.60;99.90;;;;;;5047779;28;20188;-68
2023/09/02 04:33:12;;;;;;;4.22;2.30;;;15.50;99.90;;;;;;5048439;28;20188;-68
2023/09/02 04:35:40;;;;;;;2.95;2.65;;;15.70;99.90;;;;;;5052603;28;20196;-69
2023/09/02 04:38:06;;;;;;;2.70;1.98;;;15.60;99.90;;;;;;5052387;28;20254;-69
2023/09/02 04:40:36;;;;;;;3.10;2.00;;;15.30;99.90;;;;;;5047691;28;21184;-69
2023/09/02 04:43:03;;;;;;;2.33;2.13;;;15.50;99.90;;;;;;5050721;28;20227;-68
2023/09/02 04:45:34;;;;;;;7.35;2.85;;;15.40;99.90;;;;;;5047784;28;20246;-68
2023/09/02 04:48:00;;;;;;;2.80;2.40;;;15.40;99.90;;;;;;5044945;28;22112;-69
2023/09/02 04:50:27;;;;;;;3.35;2.40;;;15.40;99.90;;;;;;5049568;28;20197;-69
2023/09/02 04:53:00;;;;;;;2.60;2.40;;;15.60;99.90;;;;;;5047761;28;20906;-67
2023/09/02 04:55:26;;;;;;;3.42;2.70;;;15.70;99.90;;;;;;5049493;28;20186;-68
2023/09/02 04:57:56;;;;;;;4.25;2.30;;;15.60;99.90;;;;;;5047828;28;20215;-68
2023/09/02 05:00:26;;;;;;;2.30;2.10;;;15.70;99.90;;;;;;5047743;28;20268;-67
2023/09/02 05:02:52;;;;;;;2.40;2.20;;;15.60;99.90;;;;;;5039708;28;20200;-68
2023/09/02 05:05:19;;;;;;;2.35;2.15;;;15.50;99.90;;;;;;5043534;28;20189;-67
2023/09/02 05:07:45;;;;;;;3.15;2.20;;;15.60;99.90;;;;;;5045557;28;20196;-68
2023/09/02 05:10:13;;;;;;;2.42;1.80;;;15.90;99.90;;;;;;5041402;28;20181;-68
2023/09/02 05:12:39;;;;;;;2.38;2.17;;;15.60;99.90;;;;;;5041481;28;20213;-68
2023/09/02 05:15:05;;;;;;;4.60;2.00;;;15.60;99.90;;;;;;5036622;28;20277;-68
2023/09/02 05:17:32;;;;;;;5.00;2.55;;;15.80;99.90;;;;;;5042564;28;20200;-68
2023/09/02 05:19:58;;;;;;;3.13;2.85;;;15.80;99.90;;;;;;5040690;28;20591;-67
2023/09/02 05:22:24;;;;;;;3.75;2.05;;;15.60;99.90;;;;;;5037396;28;20186;-68
2023/09/02 05:24:49;;;;;;;2.70;2.30;;;15.50;99.90;;;;;;5043223;28;20223;-68
2023/09/02 05:27:15;;;;;;;1.83;1.73;;;15.80;99.90;;;;;;5042169;28;20201;-67
2023/09/02 05:29:40;;;;;;;2.30;2.07;;;15.80;99.90;;;;;;5037179;28;20666;-68
2023/09/02 05:32:07;;;;;;;3.83;2.27;;;15.80;99.90;;;;;;5039533;28;20206;-68
2023/09/02 05:34:33;;;;;;;3.38;1.95;;;15.80;99.90;;;;;;5041525;28;20214;-68
2023/09/02 05:36:59;;;;;;;3.90;2.60;;;15.70;99.90;;;;;;5039563;28;20301;-67
2023/09/02 05:39:25;;;;;;;4.53;2.50;;;16.00;99.90;;;;;;5044707;28;20643;-67
2023/09/02 05:41:50;;;;;;;2.20;2.00;;;15.90;99.90;;;;;;5045071;28;20209;-68
2023/09/02 05:44:16;;;;;;;3.23;2.63;;;15.90;99.90;;;;;;5043960;28;20260;-68
2023/09/02 05:46:42;;;;;;;2.37;2.17;;;16.00;99.90;;;;;;5038621;28;20196;-67
2023/09/02 05:49:08;;;;;;;4.10;2.57;;;16.00;99.90;;;;;;5042153;28;20235;-67
2023/09/02 05:51:33;;;;;;;3.93;2.53;;;16.20;99.90;;;;;;5043870;28;20254;-67
2023/09/02 05:54:00;;;;;;;2.13;1.80;;;16.20;99.90;;;;;;5044355;28;20445;-68
2023/09/02 05:56:26;;;;;;;5.72;2.38;;;16.30;99.90;;;;;;5039034;28;20739;-68
2023/09/02 05:58:51;;;;;;;2.87;2.57;;;16.30;99.90;;;;;;5046903;28;20209;-68
2023/09/02 06:01:17;;;;;;;2.57;2.37;;;16.40;99.90;;;;;;5036084;28;20187;-69
2023/09/02 06:03:42;;;;;;;2.33;2.13;;;16.50;99.90;;;;;;5032519;28;20194;-68
2023/09/02 06:06:11;;;;;;;2.70;2.40;;;16.60;99.90;;;;;;5024994;28;20902;-67
2023/09/02 06:08:37;;;;;;;3.20;2.50;;;16.80;99.90;;;;;;5027498;28;20315;-68
2023/09/02 06:11:04;;;;;;;3.05;2.30;;;16.90;99.90;;;;;;5025402;28;20201;-67
2023/09/02 06:13:30;;;;;;;3.00;2.65;;;16.80;99.90;;;;;;5028345;28;20293;-68
2023/09/02 06:16:03;;;;;;;2.53;2.33;;;17.10;99.90;;;;;;5023628;28;20261;-67
2023/09/02 06:18:29;;;;;;;2.67;2.40;;;17.20;99.90;;;;;;5023544;28;20519;-67
2023/09/02 06:20:55;;;;;;;3.05;2.45;;;17.20;99.90;;;;;;5024488;28;20959;-67
2023/09/02 06:23:25;;;;;;;4.23;3.13;;;17.30;99.90;;;;;;5028368;28;20187;-67
2023/09/02 06:25:57;;;;;;;3.80;3.17;;;17.80;99.90;;;;;;5019908;28;20973;-68
2023/09/02 06:28:24;;;;;;;3.35;3.05;;;17.80;99.90;;;;;;5022932;28;20294;-67
2023/09/02 06:30:50;;;;;;;4.45;2.72;;;17.80;99.90;;;;;;5029356;28;20547;-67
2023/09/02 06:33:16;;;;;;;3.23;2.90;;;17.90;99.90;;;;;;5028516;28;20178;-67
2023/09/02 06:35:42;;;;;;;5.55;3.40;;;18.00;99.90;;;;;;5025439;28;20449;-67
2023/09/02 06:38:08;;;;;;;2.97;2.67;;;18.10;99.90;;;;;;5025630;28;20210;-67
2023/09/02 06:40:33;;;;;;;3.90;2.20;;;18.20;99.90;;;;;;5033185;28;20475;-69
2023/09/02 06:42:59;;;;;;;4.00;2.80;;;18.30;99.90;;;;;;5030313;28;20707;-68
2023/09/02 06:45:27;;;;;;;4.20;3.10;;;18.40;99.90;;;;;;5031209;28;20197;-67
2023/09/02 06:47:53;;;;;;;4.07;3.28;;;18.60;99.90;;;;;;5020810;28;20245;-68
2023/09/02 06:50:19;;;;;;;3.50;2.80;;;18.70;99.90;;;;;;5028735;28;20276;-68
2023/09/02 06:52:44;;;;;;;2.87;2.67;;;18.90;99.90;;;;;;5022105;28;20212;-68
2023/09/02 06:55:10;;;;;;;3.10;2.80;;;19.40;99.90;;;;;;5029411;28;20178;-68
2023/09/02 06:57:42;;;;;;;4.07;3.10;;;19.50;99.90;;;;;;5020303;28;20202;-68
2023/09/02 07:00:08;;;;;;;5.43;4.13;;;19.50;99.90;;;;;;5028835;28;20210;-66
2023/09/02 07:02:34;;;;;;;3.92;3.63;;;19.50;99.90;;;;;;5030621;28;20223;-65
2023/09/02 07:04:59;;;;;;;3.60;3.10;;;19.80;99.90;;;;;;5026995;28;20189;-66
2023/09/02 07:07:25;;;;;;;3.70;2.87;;;21.50;99.90;;;;;;5032492;28;20212;-66
2023/09/02 07:09:51;;;;;;;4.57;2.57;;;23.70;99.90;;;;;;5026085;28;20203;-68
2023/09/02 07:12:16;;;;;;;3.30;2.40;;;27.20;99.90;;;;;;5026674;28;20782;-66
2023/09/02 07:14:42;;;;;;;3.23;2.63;;;29.60;94.40;;;;;;5031693;28;20792;-67
2023/09/02 07:17:07;;;;;;;3.97;2.50;;;32.10;87.70;;;;;;5028785;28;20213;-66
2023/09/02 07:19:33;;;;;;;3.30;3.00;;;34.00;78.10;;;;;;5026560;28;20201;-65
2023/09/02 07:21:59;;;;;;;3.73;2.47;;;35.50;69.10;;;;;;5032404;28;20186;-65
2023/09/02 07:24:25;;;;;;;2.30;2.10;;;36.80;64.10;;;;;;5029263;28;20282;-66
2023/09/02 07:26:50;;;;;;;3.23;2.93;;;38.10;59.10;;;;;;5027273;28;20655;-66
2023/09/02 07:29:16;;;;;;;4.17;3.87;;;39.00;55.90;;;;;;5031034;28;20448;-66
2023/09/02 07:31:41;;;;;;;4.70;3.47;;;40.20;52.50;;;;;;5024283;28;20219;-67
2023/09/02 07:34:07;;;;;;;4.00;3.70;;;40.90;50.30;;;;;;5023738;28;20663;-67
2023/09/02 07:36:33;;;;;;;2.73;2.53;;;40.70;49.10;;;;;;5027428;28;20186;-65
2023/09/02 07:38:59;;;;;;;2.73;2.53;;;41.30;47.10;;;;;;5031086;28;20206;-65
2023/09/02 07:41:24;;;;;;;3.10;2.80;;;41.50;46.30;;;;;;5027601;28;20289;-67
2023/09/02 07:43:50;;;;;;;3.20;3.00;;;41.70;45.50;;;;;;5025715;28;20572;-69
2023/09/02 07:46:15;;;;;;;2.93;2.40;;;41.80;44.20;;;;;;5033052;28;20611;-68
2023/09/02 07:48:43;;;;;;;2.57;2.37;;;42.10;43.80;;;;;;5036889;28;20204;-68
2023/09/02 07:51:09;;;;;;;2.60;2.40;;;41.90;43.40;;;;;;5029475;28;20203;-67
2023/09/02 07:53:34;;;;;;;2.57;2.03;;;41.20;43.60;;;;;;5033932;28;20795;-68
2023/09/02 07:56:00;;;;;;;2.17;2.00;;;40.60;44.40;;;;;;5030404;28;20185;-67
2023/09/02 07:58:25;;;;;;;2.03;1.93;;;40.10;44.10;;;;;;5031175;28;20244;-67
2023/09/02 08:00:55;;;;;;;2.33;2.13;;;39.50;46.20;;;;;;5028516;28;20268;-70
2023/09/02 08:03:21;;;;;;;2.27;2.07;;;39.50;45.70;;;;;;5028173;28;20944;-67
2023/09/02 08:05:46;;;;;;;3.10;2.60;;;39.40;46.20;;;;;;5021984;28;20530;-65
2023/09/02 08:08:13;;;;;;;4.07;2.53;;;38.90;46.50;;;;;;5025549;28;20468;-66
2023/09/02 08:10:39;;;;;;;2.47;2.27;;;39.10;47.20;;;;;;5027192;28;20793;-67
2023/09/02 08:13:05;;;;;;;3.30;3.00;;;39.20;46.60;;;;;;5031385;28;20446;-66
2023/09/02 08:15:38;;;;;;;2.77;2.53;;;39.00;46.10;;;;;;5029155;28;20655;-68
2023/09/02 08:18:05;;;;;;;2.83;2.63;;;38.60;47.50;;;;;;5030406;28;20204;-69
2023/09/02 08:20:30;;;;;;;2.90;2.70;;;39.10;46.70;;;;;;5032799;28;20478;-66
2023/09/02 08:22:56;;;;;;;4.13;3.83;;;38.40;46.40;;;;;;5026582;28;20958;-67
2023/09/02 08:25:22;;;;;;;2.43;2.23;;;37.90;48.10;;;;;;5030180;28;20208;-67
2023/09/02 08:27:48;;;;;;;2.47;2.13;;;37.60;48.00;;;;;;5032332;28;20479;-67
2023/09/02 08:30:14;;;;;;;2.57;2.00;;;37.70;48.20;;;;;;5027505;28;20761;-67
2023/09/02 08:32:41;;;;;;;3.03;2.30;;;37.40;48.10;;;;;;5035262;28;20268;-67
2023/09/02 08:35:08;;;;;;;2.43;2.23;;;37.70;48.60;;;;;;5019677;28;20488;-66
2023/09/02 08:37:34;;;;;;;2.80;2.60;;;36.50;50.10;;;;;;5019876;28;20552;-70
2023/09/02 08:40:01;;;;;;;2.40;2.20;;;36.10;50.80;;;;;;5023961;28;20460;-66
2023/09/02 08:42:27;;;;;;;1.90;1.80;;;36.10;50.20;;;;;;5024816;28;20966;-67
2023/09/02 08:44:55;;;;;;;2.67;2.47;;;35.60;51.20;;;;;;5029383;28;20853;-68
2023/09/02 08:47:21;;;;;;;4.87;4.57;;;35.50;52.40;;;;;;5027930;28;20480;-66
2023/09/02 08:49:50;;;;;;;3.40;3.10;;;35.50;52.10;;;;;;5026041;28;20513;-66
2023/09/02 08:52:16;;;;;;;2.43;2.23;;;36.10;51.10;;;;;;5022793;28;20479;-66
2023/09/02 08:54:42;;;;;;;3.00;1.80;;;36.00;51.30;;;;;;5032054;28;20448;-67
2023/09/02 08:57:11;;;;;;;1.67;1.57;;;35.80;49.80;;;;;;5022350;28;20582;-66
2023/09/02 08:59:37;;;;;;;2.43;2.10;;;35.00;51.20;;;;;;5027465;28;20440;-65
2023/09/02 09:02:03;;;;;;;2.53;2.33;;;34.60;52.30;;;;;;5028935;28;20505;-65
2023/09/02 09:04:35;;;;;;;2.40;2.17;;;34.60;52.80;;;;;;5031265;28;20504;-69
2023/09/02 09:07:05;;;;;;;2.50;2.13;;;34.30;52.70;;;;;;5023492;28;20480;-65
2023/09/02 09:09:36;;;;;;;1.97;1.83;;;33.50;54.70;;;;;;5041356;28;20448;-66
2023/09/02 09:12:03;;;;;;;2.37;1.70;;;32.40;56.60;;;;;;5025359;28;20479;-65
2023/09/02 09:14:40;;;;;;;3.20;2.10;;;31.70;58.30;;;;;;5029970;28;20482;-65
2023/09/02 09:17:07;;;;;;;1.77;1.67;;;31.10;60.30;;;;;;5022735;28;20529;-65
2023/09/02 09:19:33;;;;;;;3.00;2.50;;;30.70;61.30;;;;;;5030398;28;20458;-66
2023/09/02 09:22:01;;;;;;;2.63;1.77;;;30.30;62.90;;;;;;5028775;28;20526;-65
2023/09/02 09:24:28;;;;;;;2.43;1.80;;;29.60;64.80;;;;;;5026464;28;20463;-66
2023/09/02 09:26:54;;;;;;;1.80;1.70;;;29.30;67.00;;;;;;5031114;28;20497;-65
2023/09/02 09:29:23;;;;;;;2.60;2.20;;;29.00;68.10;;;;;;5033960;28;20476;-64
2023/09/02 09:31:49;;;;;;;2.10;1.90;;;28.70;69.30;;;;;;5029134;28;20476;-64
2023/09/02 09:34:15;;;;;;;2.07;1.93;;;28.30;70.40;;;;;;5021152;28;20999;-64
2023/09/02 09:36:41;;;;;;;5.13;1.90;;;28.20;71.00;;;;;;5034237;28;20187;-68
2023/09/02 09:39:08;;;;;;;2.03;1.87;;;28.00;71.10;;;;;;5028554;28;20444;-64
2023/09/02 09:41:35;;;;;;;1.93;1.50;;;28.10;71.40;;;;;;5037159;28;20960;-64
2023/09/02 09:44:09;;;;;;;2.43;1.80;;;28.10;68.10;;;;;;5030895;28;20976;-65
2023/09/02 09:46:51;;;;;;;2.10;1.90;;;27.90;69.40;;;;;;5038694;28;20447;-65
2023/09/02 09:49:22;;;;;;;1.93;1.77;;;27.80;72.00;;;;;;5031522;28;20480;-64
2023/09/02 09:52:10;;;;;;;2.40;1.90;;;27.80;70.70;;;;;;5034664;28;20472;-67
2023/09/02 09:54:39;;;;;;;3.33;1.63;;;27.60;70.90;;;;;;5037951;28;20443;-64
2023/09/02 09:57:08;;;;;;;2.17;1.97;;;27.60;73.90;;;;;;5031231;28;20461;-66
2023/09/02 09:59:34;;;;;;;2.53;1.90;;;27.50;74.00;;;;;;5033699;28;21012;-64
2023/09/02 10:02:01;;;;;;;1.70;1.60;;;27.50;70.00;;;;;;5033024;28;20957;-65
2023/09/02 10:04:28;;;;;;;2.40;2.20;;;27.50;70.70;;;;;;5032180;28;20860;-66
2023/09/02 10:06:59;;;;;;;1.87;1.77;;;27.50;72.50;;;;;;5032197;28;20449;-66
2023/09/02 10:09:24;;;;;;;1.80;1.60;;;27.40;71.00;;;;;;5032795;28;20441;-65
2023/09/02 10:11:50;;;;;;;1.83;1.70;;;27.50;72.10;;;;;;5034690;28;20841;-65
2023/09/02 10:14:17;;;;;;;2.30;1.70;;;27.50;71.00;;;;;;5028276;28;20179;-66
2023/09/02 10:16:44;;;;;;;1.43;1.33;;;27.40;69.50;;;;;;5024261;28;20492;-65
2023/09/02 10:19:11;;;;;;;2.03;1.60;;;27.50;70.40;;;;;;5031131;28;20440;-66
2023/09/02 10:21:39;;;;;;;1.80;1.43;;;27.40;70.20;;;;;;5028641;28;20471;-66
2023/09/02 10:24:09;;;;;;;4.10;1.80;;;27.40;70.10;;;;;;5035927;28;20438;-65
2023/09/02 10:26:47;;;;;;;1.50;1.40;;;27.50;70.50;;;;;;5028374;28;20460;-66
2023/09/02 10:29:15;;;;;;;2.00;1.90;;;27.50;69.80;;;;;;5029660;28;20429;-65
2023/09/02 10:31:46;;;;;;;2.60;1.70;;;27.50;70.10;;;;;;5034004;28;20565;-66
2023/09/02 10:34:24;;;;;;;2.10;1.80;;;27.40;69.00;;;;;;5032513;28;21010;-65
2023/09/02 10:36:56;;;;;;;1.83;1.63;;;27.40;70.00;;;;;;5029375;28;20442;-65
2023/09/02 10:39:42;;;;;;;2.23;1.43;;;27.60;73.20;;;;;;5032322;28;20442;-65
2023/09/02 10:42:09;;;;;;;2.70;2.13;;;27.70;72.50;;;;;;5029241;28;20448;-65
2023/09/02 10:44:35;;;;;;;1.47;1.30;;;27.70;72.70;;;;;;5035865;28;20440;-64
2023/09/02 10:47:02;;;;;;;2.43;1.63;;;27.80;68.80;;;;;;5047396;28;20559;-65
2023/09/02 10:49:29;;;;;;;3.70;1.70;;;27.90;70.40;;;;;;5030487;28;20461;-66
2023/09/02 10:51:55;;;;;;;2.07;1.50;;;27.70;69.90;;;;;;5031604;28;20512;-66
2023/09/02 10:54:20;;;;;;;1.73;1.47;;;27.60;70.30;;;;;;5030122;28;20434;-69
2023/09/02 10:56:46;;;;;;;1.90;1.80;;;27.60;71.80;;;;;;5032725;28;20445;-65
2023/09/02 10:59:32;;;;;;;1.83;1.63;;;27.80;71.70;;;;;;5031043;28;20178;-64
2023/09/02 11:01:58;;;;;;;2.03;1.70;;;27.90;71.20;;;;;;5034800;28;20313;-65
2023/09/02 11:04:44;;;;;;;1.90;1.80;;;28.20;70.70;;;;;;5034674;28;20595;-65
2023/09/02 11:07:19;;;;;;;2.07;1.83;;;29.00;68.80;;;;;;5029994;28;20224;-66
2023/09/02 11:09:52;;;;;;;2.40;2.20;;;29.00;67.00;;;;;;5032623;28;20445;-63
2023/09/02 11:12:18;;;;;;;3.33;1.90;;;28.90;67.00;;;;;;5033521;28;20568;-67
2023/09/02 11:15:06;;;;;;;3.97;2.07;;;28.50;66.90;;;;;;5035690;28;20535;-67
2023/09/02 11:17:32;;;;;;;2.13;1.80;;;28.40;68.50;;;;;;5036219;28;20486;-65
2023/09/02 11:20:03;;;;;;;2.70;2.50;;;28.60;68.80;;;;;;5030899;28;20791;-66
2023/09/02 11:22:50;;;;;;;4.00;2.23;;;28.90;69.60;;;;;;5028819;28;20196;-67
2023/09/02 11:25:24;;;;;;;1.80;1.50;;;29.20;68.30;;;;;;5025642;28;20467;-65
2023/09/02 11:27:50;;;;;;;2.33;2.13;;;29.10;66.20;;;;;;5030612;28;20467;-66
2023/09/02 11:30:16;;;;;;;1.50;1.40;;;29.00;67.20;;;;;;5033326;28;20446;-65
2023/09/02 11:32:43;;;;;;;1.90;1.80;;;29.00;67.40;;;;;;5029379;28;20845;-66
2023/09/02 11:35:11;;;;;;;2.77;1.87;;;28.60;67.20;;;;;;5033680;28;20960;-66
2023/09/02 11:37:37;;;;;;;2.87;1.77;;;28.60;70.10;;;;;;5023216;28;21174;-66
2023/09/02 11:40:13;;;;;;;2.40;2.20;;;28.50;68.80;;;;;;5025612;28;20477;-69
2023/09/02 11:42:48;;;;;;;2.33;1.90;;;28.50;69.10;;;;;;5023960;28;20439;-66
2023/09/02 11:45:14;;;;;;;2.33;1.67;;;28.50;69.50;;;;;;5026746;28;20457;-66
2023/09/02 11:47:40;;;;;;;2.30;2.10;;;28.60;69.50;;;;;;5029484;28;20456;-68
2023/09/02 11:50:15;;;;;;;3.80;1.73;;;28.30;68.90;;;;;;5029502;28;20515;-66
2023/09/02 11:52:41;;;;;;;2.20;2.00;;;28.20;70.50;;;;;;5027179;28;20245;-68
2023/09/02 11:55:12;;;;;;;1.70;1.60;;;28.40;70.40;;;;;;5028649;28;20447;-66
2023/09/02 11:57:37;;;;;;;1.60;1.50;;;28.80;70.00;;;;;;5031390;28;20827;-66
2023/09/02 12:00:08;;;;;;;2.07;1.90;;;29.30;67.40;;;;;;5027612;28;20429;-66
2023/09/02 12:02:37;;;;;;;1.80;1.70;;;29.50;66.70;;;;;;5032009;28;20512;-65
2023/09/02 12:05:03;;;;;;;2.00;1.90;;;29.30;65.90;;;;;;5034069;28;20785;-65
2023/09/02 12:07:31;;;;;;;2.20;2.00;;;29.10;67.60;;;;;;5020292;28;20472;-64
2023/09/02 12:09:57;;;;;;;1.73;1.63;;;28.90;67.80;;;;;;5027523;28;20488;-64
2023/09/02 12:12:23;;;;;;;2.43;2.20;;;28.80;68.40;;;;;;5017802;28;20714;-64
2023/09/02 12:14:48;;;;;;;1.60;1.47;;;28.80;69.20;;;;;;5027049;28;20895;-66
2023/09/02 12:17:15;;;;;;;1.70;1.60;;;28.80;68.30;;;;;;5029137;28;20207;-67
2023/09/02 12:19:41;;;;;;;3.30;1.70;;;28.80;67.30;;;;;;5021952;28;20217;-65
2023/09/02 12:22:07;;;;;;;1.83;1.70;;;28.70;68.60;;;;;;5031467;28;20479;-66
2023/09/02 12:24:33;;;;;;;2.07;1.93;;;28.70;70.80;;;;;;5031930;28;20668;-67
2023/09/02 12:26:58;;;;;;;1.97;1.77;;;28.60;70.40;;;;;;5029815;28;20628;-68
2023/09/02 12:29:25;;;;;;;3.10;2.00;;;28.70;70.80;;;;;;5025340;28;20442;-66
2023/09/02 12:31:58;;;;;;;2.20;2.00;;;28.80;68.90;;;;;;5031238;28;20260;-65
2023/09/02 12:34:26;;;;;;;3.77;2.87;;;28.70;68.80;;;;;;5028114;28;20490;-65
2023/09/02 12:36:51;;;;;;;2.40;2.20;;;28.80;69.30;;;;;;5023283;28;20446;-66
2023/09/02 12:39:24;;;;;;;2.10;1.90;;;28.90;69.00;;;;;;5019782;28;20439;-65
2023/09/02 12:41:50;;;;;;;2.20;2.00;;;28.80;67.90;;;;;;5029131;28;20238;-66
2023/09/02 12:44:19;;;;;;;2.63;2.27;;;29.00;68.30;;;;;;5027947;28;20446;-67
2023/09/02 12:46:48;;;;;;;2.20;2.00;;;29.10;68.70;;;;;;5032086;28;20868;-66
2023/09/02 12:49:15;;;;;;;2.47;2.00;;;29.00;67.90;;;;;;5030700;28;20469;-65